sensor_id;sensor_type;location;lat;lon;timestamp;temperature;humidity
20957;DHT22;10637;47.970;7.830;2023-07-31T00:04:38;18.00;99.90
20957;DHT22;10637;47.970;7.830;2023-07-31T00:09:40;18.20;99.90
20957;DHT22;10637;47.970;7.830;2023-07-31T00:14:41;18.40;99.90
20957;DHT22;10637;47.970;7.830;2023-07-31T00:19:43;18.30;99.90
20957;DHT22;10637;47.970;7.830;2023-07-31T00:24:47;17.90;99.90
20957;DHT22;10637;47.970;7.830;2023-07-31T00:29:49;17.60;99.90
20957;DHT22;10637;47.970;7.830;2023-07-31T00:34:51;17.50;99.90
20957;DHT22;10637;47.970;7.830;2023-07-31T00:39:53;17.70;99.90
20957;DHT22;10637;47.970;7.830;2023-07-31T00:44:55;17.80;99.90
20957;DHT22;10637;47.970;7.830;2023-07-31T00:49:57;17.70;99.90
20957;DHT22;10637;47.970;7.830;2023-07-31T00:55:08;17.80;99.90
20957;DHT22;10637;47.970;7.830;2023-07-31T01:00:10;17.60;99.90
20957;DHT22;10637;47.970;7.830;2023-07-31T01:05:15;17.50;99.90
20957;DHT22;10637;47.970;7.830;2023-07-31T01:10:21;17.40;99.90
20957;DHT22;10637;47.970;7.830;2023-07-31T01:15:25;17.50;99.90
20957;DHT22;10637;47.970;7.830;2023-07-31T01:20:27;17.50;99.90
20957;DHT22;10637;47.970;7.830;2023-07-31T01:31:00;17.30;99.90
20957;DHT22;10637;47.970;7.830;2023-07-31T01:36:04;17.20;99.90
20957;DHT22;10637;47.970;7.830;2023-07-31T01:41:06;17.60;99.90
20957;DHT22;10637;47.970;7.830;2023-07-31T01:46:08;17.40;99.90
20957;DHT22;10637;47.970;7.830;2023-07-31T01:51:10;17.30;99.90
20957;DHT22;10637;47.970;7.830;2023-07-31T01:56:11;17.50;99.90
20957;DHT22;10637;47.970;7.830;2023-07-31T02:01:13;17.50;99.90
20957;DHT22;10637;47.970;7.830;2023-07-31T02:06:15;17.40;99.90
20957;DHT22;10637;47.970;7.830;2023-07-31T02:11:17;17.40;99.90
20957;DHT22;10637;47.970;7.830;2023-07-31T02:16:19;17.70;99.90
20957;DHT22;10637;47.970;7.830;2023-07-31T02:21:22;17.70;99.90
20957;DHT22;10637;47.970;7.830;2023-07-31T02:26:24;17.70;99.90
20957;DHT22;10637;47.970;7.830;2023-07-31T02:31:26;17.60;99.90
20957;DHT22;10637;47.970;7.830;2023-07-31T02:36:28;17.50;99.90
20957;DHT22;10637;47.970;7.830;2023-07-31T02:41:30;17.40;99.90
20957;DHT22;10637;47.970;7.830;2023-07-31T02:46:32;17.30;99.90
20957;DHT22;10637;47.970;7.830;2023-07-31T02:51:33;17.20;99.90
20957;DHT22;10637;47.970;7.830;2023-07-31T02:56:35;17.50;99.90
20957;DHT22;10637;47.970;7.830;2023-07-31T03:01:40;17.10;99.90
20957;DHT22;10637;47.970;7.830;2023-07-31T03:06:42;16.80;99.90
20957;DHT22;10637;47.970;7.830;2023-07-31T03:11:44;17.40;99.90
20957;DHT22;10637;47.970;7.830;2023-07-31T03:16:45;17.10;99.90
20957;DHT22;10637;47.970;7.830;2023-07-31T03:21:47;17.10;99.90
20957;DHT22;10637;47.970;7.830;2023-07-31T03:26:49;17.00;99.90
20957;DHT22;10637;47.970;7.830;2023-07-31T03:31:51;17.10;99.90
20957;DHT22;10637;47.970;7.830;2023-07-31T03:36:53;17.00;99.90
20957;DHT22;10637;47.970;7.830;2023-07-31T03:41:55;16.80;99.90
20957;DHT22;10637;47.970;7.830;2023-07-31T03:46:57;16.90;99.90
20957;DHT22;10637;47.970;7.830;2023-07-31T03:51:59;16.60;99.90
20957;DHT22;10637;47.970;7.830;2023-07-31T03:57:01;16.70;99.90
20957;DHT22;10637;47.970;7.830;2023-07-31T04:02:03;16.80;99.90
20957;DHT22;10637;47.970;7.830;2023-07-31T04:07:05;17.30;99.90
20957;DHT22;10637;47.970;7.830;2023-07-31T04:12:07;17.10;99.90
20957;DHT22;10637;47.970;7.830;2023-07-31T04:17:09;17.30;99.90
20957;DHT22;10637;47.970;7.830;2023-07-31T04:22:13;17.50;99.90
20957;DHT22;10637;47.970;7.830;2023-07-31T04:27:15;17.40;99.90
20957;DHT22;10637;47.970;7.830;2023-07-31T04:32:24;17.40;99.90
20957;DHT22;10637;47.970;7.830;2023-07-31T04:37:26;17.00;99.90
20957;DHT22;10637;47.970;7.830;2023-07-31T04:42:27;17.30;99.90
20957;DHT22;10637;47.970;7.830;2023-07-31T04:47:29;17.60;99.90
20957;DHT22;10637;47.970;7.830;2023-07-31T04:52:31;17.90;99.90
20957;DHT22;10637;47.970;7.830;2023-07-31T04:57:35;18.00;99.90
20957;DHT22;10637;47.970;7.830;2023-07-31T05:02:42;17.80;99.90
20957;DHT22;10637;47.970;7.830;2023-07-31T05:07:43;17.50;99.90
20957;DHT22;10637;47.970;7.830;2023-07-31T05:12:45;17.80;99.90
20957;DHT22;10637;47.970;7.830;2023-07-31T05:17:47;17.80;99.90
20957;DHT22;10637;47.970;7.830;2023-07-31T05:22:50;18.10;99.90
20957;DHT22;10637;47.970;7.830;2023-07-31T05:27:55;18.40;99.90
20957;DHT22;10637;47.970;7.830;2023-07-31T05:32:57;18.50;99.90
20957;DHT22;10637;47.970;7.830;2023-07-31T05:37:59;18.50;99.90
20957;DHT22;10637;47.970;7.830;2023-07-31T05:43:01;18.60;99.90
20957;DHT22;10637;47.970;7.830;2023-07-31T05:48:04;18.90;99.90
20957;DHT22;10637;47.970;7.830;2023-07-31T05:53:06;19.10;99.90
20957;DHT22;10637;47.970;7.830;2023-07-31T05:58:09;18.90;99.90
20957;DHT22;10637;47.970;7.830;2023-07-31T06:03:14;18.80;99.90
20957;DHT22;10637;47.970;7.830;2023-07-31T06:08:16;19.00;99.90
20957;DHT22;10637;47.970;7.830;2023-07-31T06:13:18;19.20;99.90
20957;DHT22;10637;47.970;7.830;2023-07-31T06:18:20;19.20;99.90
20957;DHT22;10637;47.970;7.830;2023-07-31T06:23:22;19.20;99.90
20957;DHT22;10637;47.970;7.830;2023-07-31T06:28:29;19.20;99.90
20957;DHT22;10637;47.970;7.830;2023-07-31T06:33:32;19.30;99.90
20957;DHT22;10637;47.970;7.830;2023-07-31T06:38:34;19.50;99.90
20957;DHT22;10637;47.970;7.830;2023-07-31T06:43:36;19.40;99.90
20957;DHT22;10637;47.970;7.830;2023-07-31T06:48:38;19.20;99.90
20957;DHT22;10637;47.970;7.830;2023-07-31T06:53:41;19.20;99.90
20957;DHT22;10637;47.970;7.830;2023-07-31T06:58:43;19.60;99.90
20957;DHT22;10637;47.970;7.830;2023-07-31T07:03:45;19.40;99.90
20957;DHT22;10637;47.970;7.830;2023-07-31T07:08:54;19.40;99.90
20957;DHT22;10637;47.970;7.830;2023-07-31T07:13:56;19.50;99.90
20957;DHT22;10637;47.970;7.830;2023-07-31T07:18:58;19.70;99.90
20957;DHT22;10637;47.970;7.830;2023-07-31T07:24:05;19.50;99.90
20957;DHT22;10637;47.970;7.830;2023-07-31T07:29:07;19.60;99.90
20957;DHT22;10637;47.970;7.830;2023-07-31T07:34:11;19.50;99.90
20957;DHT22;10637;47.970;7.830;2023-07-31T07:39:13;19.40;99.90
20957;DHT22;10637;47.970;7.830;2023-07-31T07:44:14;19.70;99.90
20957;DHT22;10637;47.970;7.830;2023-07-31T07:49:16;19.80;99.90
20957;DHT22;10637;47.970;7.830;2023-07-31T07:54:18;20.30;99.90
20957;DHT22;10637;47.970;7.830;2023-07-31T07:59:22;20.60;99.90
20957;DHT22;10637;47.970;7.830;2023-07-31T08:04:25;20.90;99.90
20957;DHT22;10637;47.970;7.830;2023-07-31T08:09:27;20.60;99.90
20957;DHT22;10637;47.970;7.830;2023-07-31T08:14:29;20.80;99.90
20957;DHT22;10637;47.970;7.830;2023-07-31T08:19:34;20.90;99.90
20957;DHT22;10637;47.970;7.830;2023-07-31T08:24:35;20.80;99.90
20957;DHT22;10637;47.970;7.830;2023-07-31T08:29:43;20.80;99.90
20957;DHT22;10637;47.970;7.830;2023-07-31T08:34:45;20.90;99.90
20957;DHT22;10637;47.970;7.830;2023-07-31T08:39:47;20.70;99.90
20957;DHT22;10637;47.970;7.830;2023-07-31T08:44:49;21.10;99.90
20957;DHT22;10637;47.970;7.830;2023-07-31T08:49:52;21.30;99.90
20957;DHT22;10637;47.970;7.830;2023-07-31T08:54:54;21.00;99.90
20957;DHT22;10637;47.970;7.830;2023-07-31T08:59:57;21.10;99.90
20957;DHT22;10637;47.970;7.830;2023-07-31T09:05:09;20.90;99.90
20957;DHT22;10637;47.970;7.830;2023-07-31T09:10:12;21.40;99.90
20957;DHT22;10637;47.970;7.830;2023-07-31T09:15:14;22.00;99.90
20957;DHT22;10637;47.970;7.830;2023-07-31T09:20:37;21.90;99.90
20957;DHT22;10637;47.970;7.830;2023-07-31T09:25:43;21.60;99.90
20957;DHT22;10637;47.970;7.830;2023-07-31T09:30:50;21.60;99.90
20957;DHT22;10637;47.970;7.830;2023-07-31T09:35:52;21.80;99.90
20957;DHT22;10637;47.970;7.830;2023-07-31T09:40:55;21.60;99.90
20957;DHT22;10637;47.970;7.830;2023-07-31T09:46:00;21.80;99.90
20957;DHT22;10637;47.970;7.830;2023-07-31T09:51:04;21.70;99.90
20957;DHT22;10637;47.970;7.830;2023-07-31T09:56:07;21.90;99.90
20957;DHT22;10637;47.970;7.830;2023-07-31T10:01:09;22.20;99.90
20957;DHT22;10637;47.970;7.830;2023-07-31T10:06:11;22.40;99.90
20957;DHT22;10637;47.970;7.830;2023-07-31T10:11:24;22.40;99.90
20957;DHT22;10637;47.970;7.830;2023-07-31T10:16:27;22.40;99.90
20957;DHT22;10637;47.970;7.830;2023-07-31T10:21:32;23.00;99.90
20957;DHT22;10637;47.970;7.830;2023-07-31T10:26:37;23.20;99.90
20957;DHT22;10637;47.970;7.830;2023-07-31T10:31:41;23.90;99.90
20957;DHT22;10637;47.970;7.830;2023-07-31T10:36:43;23.60;99.90
20957;DHT22;10637;47.970;7.830;2023-07-31T10:41:46;22.90;99.90
20957;DHT22;10637;47.970;7.830;2023-07-31T10:46:54;23.30;99.90
20957;DHT22;10637;47.970;7.830;2023-07-31T10:51:56;23.70;99.90
20957;DHT22;10637;47.970;7.830;2023-07-31T10:56:58;24.60;99.90
20957;DHT22;10637;47.970;7.830;2023-07-31T11:02:00;24.70;99.90
20957;DHT22;10637;47.970;7.830;2023-07-31T11:07:04;23.90;99.90
20957;DHT22;10637;47.970;7.830;2023-07-31T11:12:09;23.70;99.90
20957;DHT22;10637;47.970;7.830;2023-07-31T11:17:13;23.80;99.90
20957;DHT22;10637;47.970;7.830;2023-07-31T11:22:15;23.50;99.90
20957;DHT22;10637;47.970;7.830;2023-07-31T11:27:17;23.10;99.90
20957;DHT22;10637;47.970;7.830;2023-07-31T11:32:19;23.50;99.90
20957;DHT22;10637;47.970;7.830;2023-07-31T11:37:23;23.30;99.90
20957;DHT22;10637;47.970;7.830;2023-07-31T11:42:25;23.60;99.90
20957;DHT22;10637;47.970;7.830;2023-07-31T11:47:26;23.50;99.90
20957;DHT22;10637;47.970;7.830;2023-07-31T11:52:30;23.60;99.90
20957;DHT22;10637;47.970;7.830;2023-07-31T11:57:33;23.40;99.90
20957;DHT22;10637;47.970;7.830;2023-07-31T12:02:36;24.00;99.90
20957;DHT22;10637;47.970;7.830;2023-07-31T12:07:52;24.20;99.90
20957;DHT22;10637;47.970;7.830;2023-07-31T12:13:11;24.60;99.90
20957;DHT22;10637;47.970;7.830;2023-07-31T12:18:20;24.40;99.90
20957;DHT22;10637;47.970;7.830;2023-07-31T12:23:33;24.70;99.90
20957;DHT22;10637;47.970;7.830;2023-07-31T12:28:43;24.60;99.90
20957;DHT22;10637;47.970;7.830;2023-07-31T12:33:46;24.80;99.90
20957;DHT22;10637;47.970;7.830;2023-07-31T12:38:50;25.00;99.90
20957;DHT22;10637;47.970;7.830;2023-07-31T12:44:00;24.90;99.90
20957;DHT22;10637;47.970;7.830;2023-07-31T12:49:02;24.80;99.90
20957;DHT22;10637;47.970;7.830;2023-07-31T12:54:04;25.20;99.90
20957;DHT22;10637;47.970;7.830;2023-07-31T12:59:06;25.40;99.90
20957;DHT22;10637;47.970;7.830;2023-07-31T13:04:12;25.80;99.90
20957;DHT22;10637;47.970;7.830;2023-07-31T13:09:15;26.00;99.90
20957;DHT22;10637;47.970;7.830;2023-07-31T13:14:19;26.30;99.90
20957;DHT22;10637;47.970;7.830;2023-07-31T13:19:20;25.70;99.90
20957;DHT22;10637;47.970;7.830;2023-07-31T13:24:22;25.20;99.90
20957;DHT22;10637;47.970;7.830;2023-07-31T13:29:24;25.50;99.90
20957;DHT22;10637;47.970;7.830;2023-07-31T13:34:33;25.20;99.90
20957;DHT22;10637;47.970;7.830;2023-07-31T13:39:35;26.10;99.90
20957;DHT22;10637;47.970;7.830;2023-07-31T13:44:38;27.00;99.90
20957;DHT22;10637;47.970;7.830;2023-07-31T13:49:41;26.30;99.90
20957;DHT22;10637;47.970;7.830;2023-07-31T13:54:44;26.10;99.90
20957;DHT22;10637;47.970;7.830;2023-07-31T13:59:46;26.10;99.90
20957;DHT22;10637;47.970;7.830;2023-07-31T14:04:48;25.90;99.90
20957;DHT22;10637;47.970;7.830;2023-07-31T14:09:50;26.20;99.90
20957;DHT22;10637;47.970;7.830;2023-07-31T14:14:52;26.30;99.90
20957;DHT22;10637;47.970;7.830;2023-07-31T14:19:54;26.50;99.90
20957;DHT22;10637;47.970;7.830;2023-07-31T14:24:56;25.70;99.90
20957;DHT22;10637;47.970;7.830;2023-07-31T14:29:58;25.60;99.90
20957;DHT22;10637;47.970;7.830;2023-07-31T14:35:03;25.70;99.90
20957;DHT22;10637;47.970;7.830;2023-07-31T14:40:06;25.90;99.90
20957;DHT22;10637;47.970;7.830;2023-07-31T14:45:09;25.70;99.90
20957;DHT22;10637;47.970;7.830;2023-07-31T14:50:12;25.90;99.90
20957;DHT22;10637;47.970;7.830;2023-07-31T14:55:13;25.50;99.90
20957;DHT22;10637;47.970;7.830;2023-07-31T15:00:15;25.70;99.90
20957;DHT22;10637;47.970;7.830;2023-07-31T15:05:19;25.80;99.90
20957;DHT22;10637;47.970;7.830;2023-07-31T15:10:22;25.30;99.90
20957;DHT22;10637;47.970;7.830;2023-07-31T15:15:27;25.30;99.90
20957;DHT22;10637;47.970;7.830;2023-07-31T15:20:29;25.60;99.90
20957;DHT22;10637;47.970;7.830;2023-07-31T15:25:30;25.90;99.90
20957;DHT22;10637;47.970;7.830;2023-07-31T15:30:33;25.70;99.90
20957;DHT22;10637;47.970;7.830;2023-07-31T15:35:34;25.50;99.90
20957;DHT22;10637;47.970;7.830;2023-07-31T15:40:39;25.40;99.90
20957;DHT22;10637;47.970;7.830;2023-07-31T15:45:41;25.90;99.90
20957;DHT22;10637;47.970;7.830;2023-07-31T15:50:43;25.90;99.90
20957;DHT22;10637;47.970;7.830;2023-07-31T15:55:45;25.60;99.90
20957;DHT22;10637;47.970;7.830;2023-07-31T16:00:47;25.00;99.90
20957;DHT22;10637;47.970;7.830;2023-07-31T16:05:49;24.90;99.90
20957;DHT22;10637;47.970;7.830;2023-07-31T16:10:51;25.30;99.90
20957;DHT22;10637;47.970;7.830;2023-07-31T16:15:53;24.90;99.90
20957;DHT22;10637;47.970;7.830;2023-07-31T16:21:02;24.40;99.90
20957;DHT22;10637;47.970;7.830;2023-07-31T16:26:04;24.20;99.90
20957;DHT22;10637;47.970;7.830;2023-07-31T16:31:07;24.20;99.90
20957;DHT22;10637;47.970;7.830;2023-07-31T16:36:09;24.30;99.90
20957;DHT22;10637;47.970;7.830;2023-07-31T16:41:10;24.20;99.90
20957;DHT22;10637;47.970;7.830;2023-07-31T16:46:15;24.40;99.90
20957;DHT22;10637;47.970;7.830;2023-07-31T16:51:17;24.20;99.90
20957;DHT22;10637;47.970;7.830;2023-07-31T16:56:19;24.10;99.90
20957;DHT22;10637;47.970;7.830;2023-07-31T17:01:22;24.00;99.90
20957;DHT22;10637;47.970;7.830;2023-07-31T17:06:27;24.10;99.90
20957;DHT22;10637;47.970;7.830;2023-07-31T17:11:35;24.10;99.90
20957;DHT22;10637;47.970;7.830;2023-07-31T17:16:37;24.10;99.90
20957;DHT22;10637;47.970;7.830;2023-07-31T17:21:39;24.20;99.90
20957;DHT22;10637;47.970;7.830;2023-07-31T17:26:42;24.40;99.90
20957;DHT22;10637;47.970;7.830;2023-07-31T17:31:43;24.20;99.90
20957;DHT22;10637;47.970;7.830;2023-07-31T17:36:46;24.20;99.90
20957;DHT22;10637;47.970;7.830;2023-07-31T17:41:49;24.20;99.90
20957;DHT22;10637;47.970;7.830;2023-07-31T17:46:51;24.10;99.90
20957;DHT22;10637;47.970;7.830;2023-07-31T17:51:53;23.90;99.90
20957;DHT22;10637;47.970;7.830;2023-07-31T17:56:55;23.80;99.90
20957;DHT22;10637;47.970;7.830;2023-07-31T18:01:57;23.80;99.90
20957;DHT22;10637;47.970;7.830;2023-07-31T18:06:59;23.80;99.90
20957;DHT22;10637;47.970;7.830;2023-07-31T18:12:01;24.00;99.90
20957;DHT22;10637;47.970;7.830;2023-07-31T18:17:03;23.90;99.90
20957;DHT22;10637;47.970;7.830;2023-07-31T18:22:09;24.10;99.90
20957;DHT22;10637;47.970;7.830;2023-07-31T18:27:11;23.90;99.90
20957;DHT22;10637;47.970;7.830;2023-07-31T18:32:15;24.00;99.90
20957;DHT22;10637;47.970;7.830;2023-07-31T18:37:18;23.90;99.90
20957;DHT22;10637;47.970;7.830;2023-07-31T18:42:20;23.80;99.90
20957;DHT22;10637;47.970;7.830;2023-07-31T18:47:26;23.80;99.90
20957;DHT22;10637;47.970;7.830;2023-07-31T18:52:28;23.80;99.90
20957;DHT22;10637;47.970;7.830;2023-07-31T18:57:29;23.80;99.90
20957;DHT22;10637;47.970;7.830;2023-07-31T19:02:31;23.70;99.90
20957;DHT22;10637;47.970;7.830;2023-07-31T19:07:33;23.80;99.90
20957;DHT22;10637;47.970;7.830;2023-07-31T19:12:35;23.60;99.90
20957;DHT22;10637;47.970;7.830;2023-07-31T19:17:38;23.50;99.90
20957;DHT22;10637;47.970;7.830;2023-07-31T19:22:40;23.50;99.90
20957;DHT22;10637;47.970;7.830;2023-07-31T19:27:49;23.50;99.90
20957;DHT22;10637;47.970;7.830;2023-07-31T19:33:00;23.40;99.90
20957;DHT22;10637;47.970;7.830;2023-07-31T19:38:02;23.40;99.90
20957;DHT22;10637;47.970;7.830;2023-07-31T19:43:04;23.30;99.90
20957;DHT22;10637;47.970;7.830;2023-07-31T19:48:07;23.20;99.90
20957;DHT22;10637;47.970;7.830;2023-07-31T19:53:10;22.90;99.90
20957;DHT22;10637;47.970;7.830;2023-07-31T19:58:12;22.60;99.90
20957;DHT22;10637;47.970;7.830;2023-07-31T20:03:22;22.60;99.90
20957;DHT22;10637;47.970;7.830;2023-07-31T20:08:24;22.20;99.90
20957;DHT22;10637;47.970;7.830;2023-07-31T20:13:26;21.70;99.90
20957;DHT22;10637;47.970;7.830;2023-07-31T20:18:28;21.70;99.90
20957;DHT22;10637;47.970;7.830;2023-07-31T20:23:37;21.70;99.90
20957;DHT22;10637;47.970;7.830;2023-07-31T20:28:44;22.10;99.90
20957;DHT22;10637;47.970;7.830;2023-07-31T20:33:46;22.40;99.90
20957;DHT22;10637;47.970;7.830;2023-07-31T20:38:48;22.20;99.90
20957;DHT22;10637;47.970;7.830;2023-07-31T20:43:50;22.10;99.90
20957;DHT22;10637;47.970;7.830;2023-07-31T20:48:52;22.20;99.90
20957;DHT22;10637;47.970;7.830;2023-07-31T20:53:54;22.00;99.90
20957;DHT22;10637;47.970;7.830;2023-07-31T20:58:55;22.20;99.90
20957;DHT22;10637;47.970;7.830;2023-07-31T21:03:57;22.30;99.90
20957;DHT22;10637;47.970;7.830;2023-07-31T21:08:59;22.30;99.90
20957;DHT22;10637;47.970;7.830;2023-07-31T21:14:01;22.40;99.90
20957;DHT22;10637;47.970;7.830;2023-07-31T21:19:03;22.50;99.90
20957;DHT22;10637;47.970;7.830;2023-07-31T21:24:05;22.50;99.90
20957;DHT22;10637;47.970;7.830;2023-07-31T21:29:09;22.30;99.90
20957;DHT22;10637;47.970;7.830;2023-07-31T21:34:11;21.90;99.90
20957;DHT22;10637;47.970;7.830;2023-07-31T21:39:14;21.80;99.90
20957;DHT22;10637;47.970;7.830;2023-07-31T21:44:15;22.00;99.90
20957;DHT22;10637;47.970;7.830;2023-07-31T21:49:17;21.90;99.90
20957;DHT22;10637;47.970;7.830;2023-07-31T21:54:19;22.00;99.90
20957;DHT22;10637;47.970;7.830;2023-07-31T21:59:21;21.90;99.90
20957;DHT22;10637;47.970;7.830;2023-07-31T22:04:23;22.00;99.90
20957;DHT22;10637;47.970;7.830;2023-07-31T22:09:25;21.80;99.90
20957;DHT22;10637;47.970;7.830;2023-07-31T22:14:33;21.90;99.90
20957;DHT22;10637;47.970;7.830;2023-07-31T22:19:35;21.60;99.90
20957;DHT22;10637;47.970;7.830;2023-07-31T22:24:37;21.60;99.90
20957;DHT22;10637;47.970;7.830;2023-07-31T22:29:40;21.50;99.90
20957;DHT22;10637;47.970;7.830;2023-07-31T22:34:46;21.40;99.90
20957;DHT22;10637;47.970;7.830;2023-07-31T22:39:48;21.00;99.90
20957;DHT22;10637;47.970;7.830;2023-07-31T22:44:50;20.70;99.90
20957;DHT22;10637;47.970;7.830;2023-07-31T22:49:52;20.90;99.90
20957;DHT22;10637;47.970;7.830;2023-07-31T22:54:54;20.80;99.90
20957;DHT22;10637;47.970;7.830;2023-07-31T22:59:57;20.70;99.90
20957;DHT22;10637;47.970;7.830;2023-07-31T23:05:01;20.80;99.90
20957;DHT22;10637;47.970;7.830;2023-07-31T23:10:04;20.60;99.90
20957;DHT22;10637;47.970;7.830;2023-07-31T23:15:06;20.50;99.90
20957;DHT22;10637;47.970;7.830;2023-07-31T23:20:08;20.40;99.90
20957;DHT22;10637;47.970;7.830;2023-07-31T23:25:11;20.70;99.90
20957;DHT22;10637;47.970;7.830;2023-07-31T23:30:13;20.60;99.90
20957;DHT22;10637;47.970;7.830;2023-07-31T23:35:15;20.80;99.90
20957;DHT22;10637;47.970;7.830;2023-07-31T23:40:17;20.70;99.90
20957;DHT22;10637;47.970;7.830;2023-07-31T23:45:21;21.10;99.90
20957;DHT22;10637;47.970;7.830;2023-07-31T23:50:22;21.10;99.90
20957;DHT22;10637;47.970;7.830;2023-07-31T23:55:24;21.50;99.90
